Port Weller, Ontario

6:44 PM EDT on June 23, 2017 (GMT -0400)
VE3BMX | | Change Station

Elev 295 ft 43.21 °N, 79.22 °W | Updated 41 days ago

Overcast
Overcast
48.6 °F
Feels Like 48.6 °F
N
0.0
Wind Variable Wind from West
Gusts 0.0 mph

Today
High -- | Low -- °F
--% Chance of Precip.
Yesterday
High -- | Low -- °F
Precip. -- in
Pressure 29.51 in
Visibility 15.0 miles
Clouds Scattered Clouds 1300 ft
Overcast 2100 ft
Dew Point 38.9 °F
Humidity 69%
Rainfall in
Snow Depth Not available.
5:37 AM 9:00 PM
Waning Crescent, 0% visible
METAR CYSN 232200Z 26012G17KT 15SM SCT013 OVC021 24/21 A2951 RMK SF3SC5 SLP993 DENSITY ALT 1900FT
Pressure 29.51 in
Visibility 15.0 miles
Clouds Scattered Clouds 1300 ft
Overcast 2100 ft
Dew Point 38.9 °F
Humidity 69%
Rainfall in
Snow Depth Not available.
5:37 AM 9:00 PM
Waning Crescent, 0% visible
METAR CYSN 232200Z 26012G17KT 15SM SCT013 OVC021 24/21 A2951 RMK SF3SC5 SLP993 DENSITY ALT 1900FT

Get Severe Weather Alerts

Thanks for signing up!

Be on the lookout for a verification email in your inbox.

You'll start receiving the daily forecast at 6 AM.

×

10-Day Weather Forecast

Almanac

Astronomy

Jun. 23, 2017 Rise Set
Actual Time
Civil Twilight
Nautical Twilight
Astronomical Twilight
Moon
Length of Visible Light
Length of Day
Tomorrow will be .
, % of the Moon is Illuminated

Today's Extremes

Country Highs Country Lows

Community

WunderPhotos

Category 6

Welcome to Category 6. This is the collective home for Weather Underground's featured writeups by Dr. Jeff Masters (right), Bob Henson (left), Chris Burt, and other regular contributors.

Nearby

Air Quality

  Air Quality AQ Index Pollutant
Not available.

Snow Depth

Station Depth Elevation

Earthquake Activity

City Distance Mag. Time & Date
Minimum magnitude displayed is 2.5.

Coastal Water Temperatures

Place Temperature

Stations

Nearby Weather Stations

Station Location Temp. Windchill Dew Point Humidity Wind Precip. Elev Updated Type
                   

Watches & Warnings

There are currently no watches in effect.